createdAt,value
2022-08-14T00:04:35.762Z,0.0
2022-08-14T00:10:01.736Z,0.0
2022-08-14T00:15:51.705Z,0.0
2022-08-14T00:20:52.729Z,0.0
2022-08-14T00:26:06.134Z,0.0
2022-08-14T00:31:09.740Z,0.0
2022-08-14T00:36:36.954Z,0.0
2022-08-14T00:41:49.093Z,0.0
2022-08-14T00:46:50.478Z,0.0
2022-08-14T00:51:51.543Z,0.0
2022-08-14T00:56:55.315Z,0.0
2022-08-14T01:01:57.175Z,0.0
2022-08-14T01:06:59.194Z,0.0
2022-08-14T01:12:03.470Z,0.0
2022-08-14T01:17:04.692Z,0.0
2022-08-14T01:22:05.623Z,0.0
2022-08-14T01:27:07.220Z,0.0
2022-08-14T01:32:10.420Z,0.0
2022-08-14T01:37:11.617Z,0.0
2022-08-14T01:42:32.109Z,0.0
2022-08-14T01:47:37.545Z,0.0
2022-08-14T01:52:59.588Z,0.0
2022-08-14T01:58:18.837Z,0.0
2022-08-14T02:03:22.171Z,0.0
2022-08-14T02:08:34.426Z,0.0
2022-08-14T02:13:37.122Z,0.0
2022-08-14T02:18:38.208Z,0.0
2022-08-14T02:23:40.466Z,0.0
2022-08-14T02:28:57.693Z,0.0
2022-08-14T02:34:00.365Z,0.0
2022-08-14T02:39:01.405Z,0.0
2022-08-14T02:44:02.978Z,0.0
2022-08-14T02:49:08.464Z,0.0
2022-08-14T02:54:13.250Z,0.0
2022-08-14T02:59:21.146Z,0.0
2022-08-14T03:04:22.126Z,0.0
2022-08-14T03:09:23.131Z,0.0
2022-08-14T03:14:24.182Z,0.0
2022-08-14T03:19:25.209Z,0.0
2022-08-14T03:24:26.208Z,0.4148
2022-08-14T03:29:28.045Z,0.47405
2022-08-14T03:34:47.948Z,0.47405
2022-08-14T03:39:49.638Z,0.8296
2022-08-14T03:45:18.968Z,1.6592
2022-08-14T03:50:31.489Z,3.3184
2022-08-14T03:55:33.266Z,2.9036
2022-08-14T04:00:43.993Z,4.59225
2022-08-14T04:05:48.532Z,6.123
2022-08-14T04:10:50.281Z,9.36895
2022-08-14T04:16:01.218Z,8.059
2022-08-14T04:21:04.140Z,16.8934
2022-08-14T04:26:08.213Z,24.41785
2022-08-14T04:31:09.572Z,22.72165
2022-08-14T04:36:16.040Z,26.9621
2022-08-14T04:41:18.627Z,46.10695
2022-08-14T04:46:56.315Z,53.46595
2022-08-14T04:51:58.606Z,64.3105
2022-08-14T04:57:04.043Z,75.948
2022-08-14T05:02:05.053Z,85.07735
2022-08-14T05:07:06.028Z,102.70855
2022-08-14T05:13:12.841Z,123.64085
2022-08-14T05:18:17.230Z,145.3851
2022-08-14T05:23:38.368Z,178.6547
2022-08-14T05:28:43.466Z,190.6801
2022-08-14T05:33:44.469Z,174.3609
2022-08-14T05:38:56.345Z,188.97175
2022-08-14T05:43:57.949Z,190.3345
2022-08-14T05:48:58.876Z,198.3933
2022-08-14T05:54:12.787Z,204.2598
2022-08-14T05:59:36.839Z,220.43695
2022-08-14T06:04:40.523Z,478.1302
2022-08-14T06:09:42.736Z,243.84355
2022-08-14T06:14:52.020Z,253.56195
2022-08-14T06:19:55.128Z,343.25135
2022-08-14T06:24:57.146Z,294.6988
2022-08-14T06:29:58.075Z,391.01835
2022-08-14T06:35:04.017Z,784.5393
2022-08-14T06:40:25.576Z,657.7285
2022-08-14T06:45:28.523Z,704.53895
2022-08-14T06:50:30.519Z,638.2375
2022-08-14T06:55:31.549Z,560.4904
2022-08-14T07:00:32.553Z,416.04595
2022-08-14T07:05:33.578Z,437.14095
2022-08-14T07:10:35.716Z,393.11315
2022-08-14T07:15:39.616Z,429.20045
2022-08-14T07:20:43.590Z,2573.23865
2022-08-14T07:25:45.610Z,2832.12355
2022-08-14T07:30:50.685Z,7779.23915
2022-08-14T07:35:57.836Z,424.63755
2022-08-14T07:40:59.880Z,462.9184
2022-08-14T07:46:00.912Z,405.1421
2022-08-14T07:51:11.104Z,411.48285
2022-08-14T07:56:21.597Z,514.94605
2022-08-14T08:01:37.739Z,523.18255
2022-08-14T08:06:49.518Z,1402.25695
2022-08-14T08:11:54.208Z,495.8051
2022-08-14T08:16:55.581Z,507.41965
2022-08-14T08:21:56.523Z,492.6058
2022-08-14T08:26:57.413Z,454.0298
2022-08-14T08:32:01.811Z,468.60695
2022-08-14T08:37:07.132Z,444.1932
2022-08-14T08:42:08.426Z,466.75685
2022-08-14T08:47:11.279Z,523.24235
2022-08-14T08:52:24.497Z,690.663
2022-08-14T08:57:26.642Z,524.30925
2022-08-14T09:02:27.924Z,593.1064
2022-08-14T09:07:28.966Z,598.79445
2022-08-14T09:12:32.997Z,582.20225
2022-08-14T09:17:34.169Z,573.7881
2022-08-14T09:22:36.727Z,538.17495
2022-08-14T09:27:48.898Z,583.03235
2022-08-14T09:32:59.539Z,625.99285
2022-08-14T09:38:01.130Z,646.9105
2022-08-14T09:43:02.201Z,679.38315
2022-08-14T09:48:03.189Z,597.2545
2022-08-14T09:53:04.520Z,614.32005
2022-08-14T09:58:05.839Z,695.44265
2022-08-14T10:03:09.130Z,691.94775
2022-08-14T10:08:14.980Z,661.60615
2022-08-14T10:13:16.149Z,682.8196
2022-08-14T10:18:18.333Z,654.1417
2022-08-14T10:23:19.512Z,1458.263
2022-08-14T10:28:39.646Z,679.3248
2022-08-14T10:34:20.181Z,597.6082
2022-08-14T10:39:30.451Z,570.94245
2022-08-14T10:44:32.983Z,577.46105
2022-08-14T10:49:33.930Z,592.9875
2022-08-14T10:54:40.048Z,892.7637
2022-08-14T10:59:43.383Z,619.8903
2022-08-14T11:04:44.593Z,584.51165
2022-08-14T11:09:46.790Z,597.66715
2022-08-14T11:14:49.346Z,563.3567
2022-08-14T11:19:53.717Z,582.49725
2022-08-14T11:24:56.069Z,552.0982
2022-08-14T11:30:00.519Z,530.94305
2022-08-14T11:35:53.706Z,507.4177
2022-08-14T11:41:00.833Z,501.01795
2022-08-14T11:46:03.377Z,490.174
2022-08-14T11:51:04.945Z,568.0386
2022-08-14T11:56:11.040Z,511.5661
2022-08-14T12:01:12.232Z,507.7737
2022-08-14T12:06:28.766Z,500.4257
2022-08-14T12:11:44.244Z,515.0627
2022-08-14T12:16:48.647Z,518.02555
2022-08-14T12:21:50.017Z,516.07
2022-08-14T12:26:57.821Z,520.69225
2022-08-14T12:32:00.096Z,540.06965
2022-08-14T12:37:01.112Z,563.5358
2022-08-14T12:42:02.145Z,598.20145
2022-08-14T12:47:03.081Z,815.62325
2022-08-14T12:52:11.871Z,1333.23785
2022-08-14T12:57:20.382Z,1731.7714
2022-08-14T13:02:21.709Z,1928.6584
2022-08-14T13:07:27.113Z,1737.06345
2022-08-14T13:12:43.196Z,1023.891
2022-08-14T13:17:57.674Z,976.5156
2022-08-14T13:23:01.268Z,1500.7667
2022-08-14T13:28:02.294Z,1616.52765
2022-08-14T13:33:03.214Z,1577.5781
2022-08-14T13:38:04.117Z,1469.26745
2022-08-14T13:43:05.685Z,1424.34135
2022-08-14T13:48:06.584Z,708.53895
2022-08-14T13:53:07.703Z,806.95595
2022-08-14T13:58:30.011Z,1151.4169
2022-08-14T14:03:34.811Z,1388.5066
2022-08-14T14:08:43.477Z,1415.0067
2022-08-14T14:13:48.425Z,1297.4564
2022-08-14T14:18:49.338Z,1304.1689
2022-08-14T14:23:53.430Z,1284.74835
2022-08-14T14:28:54.827Z,1294.2466
2022-08-14T14:33:58.322Z,1286.4084
2022-08-14T14:38:59.414Z,1177.5407
2022-08-14T14:44:00.376Z,1188.25595
2022-08-14T14:49:01.546Z,1228.0573
2022-08-14T14:54:04.554Z,1179.2406
2022-08-14T14:59:05.525Z,1142.32
2022-08-14T15:04:07.980Z,1064.12245
2022-08-14T15:09:23.806Z,962.5206
2022-08-14T15:14:55.028Z,958.57855
2022-08-14T15:19:59.040Z,848.1648
2022-08-14T15:25:00.016Z,704.6585
2022-08-14T15:30:02.249Z,529.8332
2022-08-14T15:35:03.613Z,481.70305
2022-08-14T15:40:10.264Z,439.45255
2022-08-14T15:45:23.302Z,490.23565
2022-08-14T15:50:25.317Z,515.83445
2022-08-14T15:55:27.570Z,503.8645
2022-08-14T16:00:40.486Z,478.68
2022-08-14T16:05:46.125Z,473.64325
2022-08-14T16:10:47.240Z,446.20715
2022-08-14T16:15:53.069Z,431.98555
2022-08-14T16:20:54.681Z,404.84575
2022-08-14T16:25:55.671Z,382.80215
2022-08-14T16:30:56.618Z,369.70625
2022-08-14T16:36:00.664Z,343.39605
2022-08-14T16:41:01.942Z,325.67825
2022-08-14T16:46:02.871Z,303.7531
2022-08-14T16:51:06.792Z,283.7834
2022-08-14T16:56:07.967Z,266.3618
2022-08-14T17:01:24.451Z,247.10325
2022-08-14T17:06:30.561Z,230.7229
2022-08-14T17:11:37.478Z,211.78155
2022-08-14T17:16:38.571Z,194.70185
2022-08-14T17:21:41.530Z,173.30935
2022-08-14T17:26:42.768Z,161.2098
2022-08-14T17:31:58.600Z,147.5985
2022-08-14T17:37:01.663Z,133.9872
2022-08-14T17:42:03.386Z,125.8714
2022-08-14T17:47:14.596Z,101.08465
2022-08-14T17:52:18.940Z,74.66425
2022-08-14T17:57:41.173Z,65.42005
2022-08-14T18:02:50.626Z,54.69435
2022-08-14T18:08:31.406Z,44.7984
2022-08-14T18:13:51.260Z,35.3764
2022-08-14T18:18:53.640Z,25.7767
2022-08-14T18:23:54.569Z,12.2662
2022-08-14T18:28:55.507Z,6.222
2022-08-14T18:34:00.105Z,3.6147
2022-08-14T18:39:01.132Z,1.6592
2022-08-14T18:44:02.119Z,1.2444
2022-08-14T18:49:03.031Z,1.3463
2022-08-14T18:54:06.324Z,0.47405
2022-08-14T18:59:11.157Z,0.4148
2022-08-14T19:04:12.073Z,0.0
2022-08-14T19:09:13.420Z,0.0
2022-08-14T19:14:14.366Z,0.0
2022-08-14T19:19:17.394Z,0.0
2022-08-14T19:24:29.613Z,0.0
2022-08-14T19:29:37.670Z,0.0
2022-08-14T19:34:52.779Z,0.0
2022-08-14T19:39:54.384Z,0.0
2022-08-14T19:44:55.365Z,0.0
2022-08-14T19:50:24.535Z,0.0
2022-08-14T19:55:39.755Z,0.0
2022-08-14T20:00:51.819Z,0.0
2022-08-14T20:05:57.527Z,0.0
2022-08-14T20:11:15.825Z,0.0
2022-08-14T20:16:32.307Z,0.0
2022-08-14T20:21:34.573Z,0.0
2022-08-14T20:26:36.737Z,0.0
2022-08-14T20:31:38.394Z,0.0
2022-08-14T20:36:41.824Z,0.0
2022-08-14T20:41:48.936Z,0.0
2022-08-14T20:46:52.595Z,0.0
2022-08-14T20:51:58.802Z,0.0
2022-08-14T20:57:00.637Z,0.0
2022-08-14T21:02:01.554Z,0.0
2022-08-14T21:07:35.522Z,0.0
2022-08-14T21:12:38.059Z,0.0
2022-08-14T21:18:28.600Z,0.0
2022-08-14T21:23:34.853Z,0.0
2022-08-14T21:28:56.079Z,0.0
2022-08-14T21:33:57.086Z,0.0
2022-08-14T21:38:58.155Z,0.0
2022-08-14T21:44:04.331Z,0.0
2022-08-14T21:49:10.355Z,0.0
2022-08-14T21:54:30.250Z,0.0
2022-08-14T21:59:38.537Z,0.0
2022-08-14T22:04:41.472Z,0.0
2022-08-14T22:09:43.006Z,0.0
2022-08-14T22:14:44.516Z,0.0
2022-08-14T22:19:54.169Z,0.0
2022-08-14T22:25:01.919Z,0.0
2022-08-14T22:30:03.161Z,0.0
2022-08-14T22:35:04.161Z,0.0
2022-08-14T22:40:50.903Z,0.0
2022-08-14T22:46:20.368Z,0.0
2022-08-14T22:51:21.660Z,0.0
2022-08-14T22:56:30.263Z,0.0
2022-08-14T23:01:56.574Z,0.0
2022-08-14T23:07:02.873Z,0.0
2022-08-14T23:12:05.576Z,0.0
2022-08-14T23:17:38.970Z,0.0
2022-08-14T23:22:40.694Z,0.0
2022-08-14T23:28:02.652Z,0.0
2022-08-14T23:33:04.827Z,0.0
2022-08-14T23:38:06.791Z,0.0
2022-08-14T23:43:14.187Z,0.0
2022-08-14T23:48:15.235Z,0.0
2022-08-14T23:53:28.518Z,0.0
2022-08-14T23:58:49.515Z,0.0
